Time;durP1;ratioP1;P1;durP2;ratioP2;P2;SDS_P1;SDS_P2;PMS_P1;PMS_P2;Temp;Humidity;BMP_temperature;BMP_pressure;BME280_temperature;BME280_humidity;BME280_pressure;Samples;Min_cycle;Max_cycle;Signal;HPM_P1;HPM_P2
2022/04/01 00:00:20;;;;;;;0.40;0.30;;;5.00;99.90;;;;;;5097375;28;20452;-90
2022/04/01 00:02:49;;;;;;;0.40;0.40;;;4.90;99.90;;;;;;5097092;28;20455;-90
2022/04/01 00:05:16;;;;;;;0.30;0.30;;;4.90;99.90;;;;;;5098321;28;20880;-90
2022/04/01 00:07:43;;;;;;;0.37;0.37;;;4.90;99.90;;;;;;5097298;28;20865;-89
2022/04/01 00:10:11;;;;;;;0.60;0.60;;;5.00;99.90;;;;;;5097295;28;20456;-90
2022/04/01 00:12:42;;;;;;;0.30;0.30;;;4.90;99.90;;;;;;5097694;28;20440;-88
2022/04/01 00:15:12;;;;;;;0.30;0.30;;;4.90;99.90;;;;;;5097347;28;20484;-89
2022/04/01 00:17:39;;;;;;;1.10;0.40;;;4.90;99.90;;;;;;5097024;28;20448;-90
2022/04/01 00:20:09;;;;;;;0.40;0.40;;;4.90;99.90;;;;;;5097252;28;20464;-89
2022/04/01 00:22:36;;;;;;;0.30;0.30;;;4.90;99.90;;;;;;5096981;28;20942;-88
2022/04/01 00:25:03;;;;;;;0.97;0.97;;;4.90;99.90;;;;;;5096918;28;20443;-88
2022/04/01 00:27:30;;;;;;;0.40;0.40;;;4.90;99.90;;;;;;5096865;28;20435;-88
2022/04/01 00:29:56;;;;;;;0.70;0.70;;;4.90;99.90;;;;;;5097252;28;20468;-90
2022/04/01 00:32:23;;;;;;;0.30;0.20;;;4.90;99.90;;;;;;5097117;28;20459;-89
2022/04/01 00:34:51;;;;;;;1.03;1.03;;;4.90;99.90;;;;;;5097029;28;20483;-89
2022/04/01 00:37:19;;;;;;;0.30;0.30;;;4.90;99.90;;;;;;5097114;28;20480;-89
2022/04/01 00:39:46;;;;;;;0.40;0.40;;;4.90;99.90;;;;;;5097035;28;20483;-90
2022/04/01 00:42:13;;;;;;;1.23;0.40;;;4.80;99.90;;;;;;5096827;28;20946;-90
2022/04/01 00:44:41;;;;;;;1.10;1.00;;;4.90;99.90;;;;;;5096823;28;20439;-89
2022/04/01 00:47:11;;;;;;;0.77;0.40;;;4.90;99.90;;;;;;5096874;28;20448;-90
2022/04/01 00:49:39;;;;;;;0.93;0.90;;;5.00;99.90;;;;;;5096391;28;20459;-90
2022/04/01 00:52:09;;;;;;;0.30;0.20;;;5.00;99.90;;;;;;5096689;28;20471;-90
2022/04/01 00:54:38;;;;;;;1.33;0.60;;;5.00;99.90;;;;;;5096584;28;20433;-89
2022/04/01 00:57:06;;;;;;;0.33;0.33;;;5.00;99.90;;;;;;5096596;28;20444;-90
2022/04/01 00:59:33;;;;;;;4.87;1.53;;;5.00;99.90;;;;;;5096560;28;20468;-88
2022/04/01 01:02:00;;;;;;;0.40;0.40;;;5.00;99.90;;;;;;5095079;28;20439;-90
2022/04/01 01:04:27;;;;;;;0.40;0.40;;;4.90;99.90;;;;;;5095935;28;20475;-89
2022/04/01 01:06:56;;;;;;;0.60;0.60;;;5.00;99.90;;;;;;5096138;28;20443;-90
2022/04/01 01:09:25;;;;;;;0.40;0.40;;;4.90;99.90;;;;;;5096476;28;20468;-89
2022/04/01 01:11:54;;;;;;;0.87;0.60;;;4.90;99.90;;;;;;5096223;28;20931;-88
2022/04/01 01:14:26;;;;;;;0.47;0.47;;;4.90;99.90;;;;;;5095966;28;20923;-88
2022/04/01 01:16:53;;;;;;;0.87;0.70;;;4.90;99.90;;;;;;5096118;28;20465;-90
2022/04/01 01:19:21;;;;;;;0.40;0.40;;;4.90;99.90;;;;;;5096185;28;20476;-90
2022/04/01 01:21:51;;;;;;;1.43;1.33;;;4.90;99.90;;;;;;5096052;28;20440;-88
2022/04/01 01:24:29;;;;;;;0.30;0.20;;;4.90;99.90;;;;;;5096055;28;20927;-90
2022/04/01 01:26:57;;;;;;;0.77;0.77;;;4.80;99.90;;;;;;5095681;28;20408;-91
2022/04/01 01:29:26;;;;;;;0.40;0.40;;;4.80;99.90;;;;;;5095821;28;20464;-90
2022/04/01 01:31:54;;;;;;;0.83;0.83;;;4.80;99.90;;;;;;5095771;28;20448;-87
2022/04/01 01:34:21;;;;;;;0.83;0.83;;;4.80;99.90;;;;;;5095804;28;20825;-91
2022/04/01 01:36:48;;;;;;;1.23;1.23;;;4.80;99.90;;;;;;5095438;28;20856;-90
2022/04/01 01:39:15;;;;;;;0.30;0.30;;;4.80;99.90;;;;;;5095544;28;20475;-87
2022/04/01 01:41:44;;;;;;;0.50;0.50;;;4.80;99.90;;;;;;5095714;28;20824;-89
2022/04/01 01:44:11;;;;;;;1.20;1.20;;;4.80;99.90;;;;;;5095540;28;20443;-91
2022/04/01 01:46:38;;;;;;;1.60;0.63;;;4.80;99.90;;;;;;5095834;28;20439;-92
2022/04/01 01:49:05;;;;;;;2.00;1.90;;;4.80;99.90;;;;;;5095518;28;20475;-87
2022/04/01 01:57:02;;;;;;;0.83;0.83;;;4.80;99.90;;;;;;5095399;28;20460;-89
2022/04/01 01:59:29;;;;;;;2.63;1.27;;;4.70;99.90;;;;;;5095279;28;20471;-90
2022/04/01 02:01:57;;;;;;;0.40;0.40;;;4.80;99.90;;;;;;5095091;28;20432;-90
2022/04/01 02:04:24;;;;;;;0.70;0.70;;;4.70;99.90;;;;;;5094853;28;20525;-89
2022/04/01 02:06:51;;;;;;;0.93;0.93;;;4.70;99.90;;;;;;5095106;28;20440;-89
2022/04/01 02:09:18;;;;;;;2.30;0.90;;;4.70;99.90;;;;;;5095022;28;20459;-88
2022/04/01 02:11:45;;;;;;;1.63;1.53;;;4.70;99.90;;;;;;5094897;28;20448;-88
2022/04/01 02:14:14;;;;;;;0.57;0.57;;;4.70;99.90;;;;;;5094299;28;20432;-88
2022/04/01 02:16:44;;;;;;;0.50;0.50;;;4.70;99.90;;;;;;5094953;28;20488;-89
2022/04/01 02:19:11;;;;;;;1.27;1.27;;;4.70;99.90;;;;;;5094686;28;20797;-90
2022/04/01 02:21:38;;;;;;;0.60;0.40;;;4.60;99.90;;;;;;5094903;28;20893;-90
2022/04/01 02:24:07;;;;;;;0.40;0.40;;;4.70;99.90;;;;;;5094704;28;20433;-88
2022/04/01 02:26:35;;;;;;;0.40;0.40;;;4.60;99.90;;;;;;5094554;28;20440;-88
2022/04/01 02:29:03;;;;;;;0.50;0.50;;;4.60;99.90;;;;;;5094694;28;20468;-88
2022/04/01 02:31:32;;;;;;;0.30;0.30;;;4.60;99.90;;;;;;5094732;28;20947;-87
2022/04/01 02:33:59;;;;;;;1.93;1.87;;;4.60;99.90;;;;;;5094376;28;20439;-92
2022/04/01 02:36:26;;;;;;;0.93;0.77;;;4.60;99.90;;;;;;5094798;28;20487;-89
2022/04/01 02:38:53;;;;;;;0.83;0.83;;;4.60;99.90;;;;;;5094883;28;20864;-90
2022/04/01 02:41:20;;;;;;;0.50;0.50;;;4.60;99.90;;;;;;5094606;28;20777;-90
2022/04/01 02:43:47;;;;;;;0.40;0.40;;;4.60;99.90;;;;;;5094559;28;20450;-89
2022/04/01 02:46:15;;;;;;;1.47;1.47;;;4.60;99.90;;;;;;5094536;28;20818;-89
2022/04/01 02:48:43;;;;;;;0.30;0.27;;;4.60;99.90;;;;;;5094365;28;20947;-88
2022/04/01 02:51:09;;;;;;;0.50;0.50;;;4.50;99.90;;;;;;5094066;28;20455;-88
2022/04/01 02:53:36;;;;;;;0.30;0.30;;;4.50;99.90;;;;;;5094137;28;20448;-87
2022/04/01 02:56:03;;;;;;;0.53;0.53;;;4.60;99.90;;;;;;5093843;28;20889;-89
2022/04/01 02:58:30;;;;;;;0.30;0.30;;;4.60;99.90;;;;;;5093784;28;20448;-89
2022/04/01 03:00:57;;;;;;;0.30;0.20;;;4.60;99.90;;;;;;5093999;28;20466;-88
2022/04/01 03:03:24;;;;;;;0.97;0.97;;;4.60;99.90;;;;;;5093769;28;20480;-90
2022/04/01 03:05:52;;;;;;;1.37;1.37;;;4.50;99.90;;;;;;5093801;28;20413;-89
2022/04/01 03:08:19;;;;;;;1.00;0.90;;;4.50;99.90;;;;;;5093931;28;20439;-88
2022/04/01 03:10:45;;;;;;;3.60;0.83;;;4.50;99.90;;;;;;5093840;28;20464;-89
2022/04/01 03:13:12;;;;;;;1.00;1.00;;;4.50;99.90;;;;;;5093797;28;20448;-87
2022/04/01 03:15:39;;;;;;;1.47;0.40;;;4.50;99.90;;;;;;5093546;28;20986;-87
2022/04/01 03:18:06;;;;;;;0.50;0.50;;;4.50;99.90;;;;;;5093516;28;20955;-89
2022/04/01 03:20:35;;;;;;;1.53;1.53;;;4.50;99.90;;;;;;5093665;28;20463;-88
2022/04/01 03:23:04;;;;;;;1.33;1.33;;;4.40;99.90;;;;;;5093659;28;20450;-89
2022/04/01 03:25:32;;;;;;;0.70;0.70;;;4.40;99.90;;;;;;5092804;28;20527;-89
2022/04/01 03:28:01;;;;;;;0.30;0.20;;;4.30;99.90;;;;;;5093673;28;20555;-89
2022/04/01 03:30:28;;;;;;;0.53;0.53;;;4.20;99.90;;;;;;5093389;28;20959;-91
2022/04/01 03:32:55;;;;;;;0.30;0.30;;;4.30;99.90;;;;;;5093719;28;20439;-88
2022/04/01 03:35:23;;;;;;;0.30;0.30;;;4.20;99.90;;;;;;5093577;28;20432;-88
2022/04/01 03:37:52;;;;;;;0.30;0.30;;;4.20;99.90;;;;;;5093481;28;20550;-89
2022/04/01 03:40:20;;;;;;;0.30;0.30;;;4.20;99.90;;;;;;5093671;28;20503;-89
2022/04/01 03:42:50;;;;;;;0.40;0.40;;;4.20;99.90;;;;;;5093511;28;20429;-89
2022/04/01 03:45:17;;;;;;;0.40;0.40;;;4.20;99.90;;;;;;5093500;28;20430;-90
2022/04/01 03:47:52;;;;;;;0.53;0.53;;;4.20;99.90;;;;;;5093265;28;20942;-89
2022/04/01 03:50:30;;;;;;;0.30;0.30;;;4.10;99.90;;;;;;5093467;28;20474;-89
2022/04/01 03:53:04;;;;;;;0.30;0.20;;;4.20;99.90;;;;;;5093271;28;20420;-89
2022/04/01 03:55:33;;;;;;;0.40;0.40;;;4.10;99.90;;;;;;5093311;28;20432;-90
2022/04/01 03:58:07;;;;;;;0.30;0.30;;;4.10;99.90;;;;;;5093453;28;20459;-89
2022/04/01 04:00:35;;;;;;;0.30;0.30;;;4.10;99.90;;;;;;5093295;28;20472;-88
2022/04/01 04:03:07;;;;;;;0.50;0.50;;;4.10;99.90;;;;;;5093112;28;20529;-90
2022/04/01 04:05:36;;;;;;;0.70;0.70;;;4.10;99.90;;;;;;5093997;28;20485;-88
2022/04/01 04:08:04;;;;;;;0.30;0.30;;;4.00;99.90;;;;;;5093431;28;20452;-88
2022/04/01 04:10:34;;;;;;;0.43;0.43;;;4.00;99.90;;;;;;5093198;28;20467;-88
2022/04/01 04:13:04;;;;;;;0.80;0.50;;;4.00;99.90;;;;;;5093286;28;20448;-87
2022/04/01 04:15:40;;;;;;;0.40;0.40;;;4.00;99.90;;;;;;5093891;28;20448;-89
2022/04/01 04:18:10;;;;;;;0.30;0.20;;;3.90;99.90;;;;;;5092989;28;20481;-88
2022/04/01 04:20:41;;;;;;;0.40;0.40;;;3.90;99.90;;;;;;5093161;28;20460;-88
2022/04/01 04:23:13;;;;;;;0.30;0.30;;;3.80;99.90;;;;;;5093155;28;20504;-88
2022/04/01 04:25:59;;;;;;;0.30;0.30;;;3.90;99.90;;;;;;5093264;28;20436;-89
2022/04/01 04:28:27;;;;;;;0.40;0.40;;;3.90;99.90;;;;;;5093330;28;20413;-87
2022/04/01 04:31:00;;;;;;;0.30;0.30;;;3.90;99.90;;;;;;5093042;28;20467;-89
2022/04/01 04:33:30;;;;;;;0.40;0.40;;;3.80;99.90;;;;;;5093087;28;20432;-88
2022/04/01 04:36:04;;;;;;;0.30;0.20;;;3.90;99.90;;;;;;5093100;28;20962;-89
2022/04/01 04:38:39;;;;;;;0.50;0.50;;;3.90;99.90;;;;;;5097090;28;20447;-88
2022/04/01 04:41:09;;;;;;;0.70;0.70;;;3.80;99.90;;;;;;5096789;28;20412;-88
2022/04/01 04:43:39;;;;;;;0.40;0.40;;;3.80;99.90;;;;;;5096946;28;20439;-88
2022/04/01 04:46:06;;;;;;;1.67;0.57;;;3.80;99.90;;;;;;5096726;28;20493;-88
2022/04/01 04:48:34;;;;;;;1.00;0.70;;;3.70;99.90;;;;;;5097551;28;20448;-90
2022/04/01 04:51:03;;;;;;;0.30;0.30;;;3.70;99.90;;;;;;5096553;28;20478;-88
2022/04/01 04:53:33;;;;;;;2.20;0.73;;;3.70;99.90;;;;;;5096291;28;20848;-88
2022/04/01 04:56:01;;;;;;;0.30;0.30;;;3.70;99.90;;;;;;5096385;28;20884;-89
2022/04/01 04:58:31;;;;;;;4.70;0.90;;;3.60;99.90;;;;;;5096494;28;20452;-90
2022/04/01 05:01:02;;;;;;;0.60;0.60;;;3.60;99.90;;;;;;5096692;28;20478;-87
2022/04/01 05:03:48;;;;;;;0.53;0.53;;;3.60;99.90;;;;;;5096218;28;20455;-89
2022/04/01 05:06:18;;;;;;;0.30;0.30;;;3.60;99.90;;;;;;5096387;28;20440;-88
2022/04/01 05:08:55;;;;;;;0.40;0.37;;;3.60;99.90;;;;;;5096293;28;20536;-87
2022/04/01 05:11:27;;;;;;;0.40;0.40;;;3.50;99.90;;;;;;5096910;28;20448;-89
2022/04/01 05:14:01;;;;;;;0.47;0.47;;;3.50;99.90;;;;;;5096361;28;20435;-89
2022/04/01 05:16:33;;;;;;;0.40;0.40;;;3.40;99.90;;;;;;5096069;28;20472;-88
2022/04/01 05:19:04;;;;;;;0.40;0.40;;;3.40;99.90;;;;;;5096072;28;20436;-88
2022/04/01 05:21:39;;;;;;;0.30;0.30;;;3.50;99.90;;;;;;5095767;28;20412;-88
2022/04/01 05:24:08;;;;;;;1.00;1.00;;;3.40;99.90;;;;;;5095883;28;20414;-89
2022/04/01 05:26:40;;;;;;;1.80;1.70;;;3.40;99.90;;;;;;5095937;28;20432;-88
2022/04/01 05:29:13;;;;;;;0.30;0.30;;;3.40;99.90;;;;;;5095654;28;20448;-88
2022/04/01 05:31:46;;;;;;;0.30;0.20;;;3.40;99.90;;;;;;5095904;28;20436;-88
2022/04/01 05:34:20;;;;;;;0.97;0.57;;;3.40;99.90;;;;;;5095833;28;20440;-88
2022/04/01 05:36:47;;;;;;;0.40;0.40;;;3.30;99.90;;;;;;5095751;28;20475;-89
2022/04/01 05:39:15;;;;;;;0.87;0.87;;;3.30;99.90;;;;;;5095477;28;20483;-88
2022/04/01 05:41:42;;;;;;;0.77;0.77;;;3.30;99.90;;;;;;5095870;28;20441;-88
2022/04/01 05:44:11;;;;;;;0.40;0.40;;;3.40;99.90;;;;;;5095334;28;20428;-88
2022/04/01 05:46:39;;;;;;;0.30;0.20;;;3.40;99.90;;;;;;5095079;28;20445;-88
2022/04/01 05:49:07;;;;;;;0.70;0.70;;;3.40;99.90;;;;;;5094311;28;20970;-88
2022/04/01 05:51:35;;;;;;;0.80;0.80;;;3.40;99.90;;;;;;5095381;28;20440;-89
2022/04/01 05:54:03;;;;;;;0.70;0.70;;;3.40;99.90;;;;;;5095470;28;20437;-88
2022/04/01 05:56:32;;;;;;;0.30;0.30;;;3.40;99.90;;;;;;5094992;28;20853;-90
2022/04/01 05:58:59;;;;;;;0.30;0.20;;;3.30;99.90;;;;;;5095222;28;20539;-88
2022/04/01 06:01:40;;;;;;;0.40;0.40;;;3.40;99.90;;;;;;5095328;28;20452;-91
2022/04/01 06:04:37;;;;;;;0.40;0.40;;;3.30;99.90;;;;;;5094945;28;20915;-89
2022/04/01 06:07:10;;;;;;;0.50;0.50;;;3.30;99.90;;;;;;5095171;28;20444;-89
2022/04/01 06:09:47;;;;;;;0.60;0.60;;;3.30;99.90;;;;;;5095014;28;20448;-88
2022/04/01 06:12:21;;;;;;;1.00;0.97;;;3.30;99.90;;;;;;5095159;28;20436;-90
2022/04/01 06:14:58;;;;;;;0.77;0.77;;;3.20;99.90;;;;;;5094968;28;20774;-89
2022/04/01 06:17:38;;;;;;;0.60;0.60;;;3.20;99.90;;;;;;5094915;28;20458;-88
2022/04/01 06:20:07;;;;;;;0.30;0.30;;;3.20;99.90;;;;;;5094471;28;20475;-89
2022/04/01 06:22:43;;;;;;;1.37;0.77;;;3.20;99.90;;;;;;5094778;28;20448;-89
2022/04/01 06:25:13;;;;;;;0.40;0.40;;;3.30;99.90;;;;;;5094528;28;20916;-89
2022/04/01 06:27:44;;;;;;;1.43;0.60;;;3.30;99.90;;;;;;5094681;28;20444;-88
2022/04/01 06:30:13;;;;;;;0.40;0.40;;;3.30;99.90;;;;;;5094697;28;20498;-88
2022/04/01 06:32:53;;;;;;;0.40;0.40;;;3.40;99.90;;;;;;5094716;28;20928;-88
2022/04/01 06:35:25;;;;;;;1.17;1.17;;;3.30;99.90;;;;;;5094221;28;20440;-90
2022/04/01 06:37:57;;;;;;;0.30;0.30;;;3.40;99.90;;;;;;5094543;28;20831;-89
2022/04/01 06:40:29;;;;;;;0.30;0.20;;;3.40;99.90;;;;;;5094925;28;20460;-88
2022/04/01 06:42:57;;;;;;;0.30;0.20;;;3.40;99.90;;;;;;5094410;28;20405;-88
2022/04/01 06:45:24;;;;;;;0.93;0.93;;;3.40;99.90;;;;;;5094111;28;20935;-89
2022/04/01 06:47:53;;;;;;;0.30;0.30;;;3.30;99.90;;;;;;5094334;28;20448;-89
2022/04/01 06:50:20;;;;;;;0.70;0.70;;;3.30;99.90;;;;;;5094174;28;20479;-89
2022/04/01 06:52:48;;;;;;;0.53;0.53;;;3.20;99.90;;;;;;5094314;28;20463;-90
2022/04/01 06:55:15;;;;;;;0.40;0.40;;;3.20;99.90;;;;;;5094660;28;20451;-89
2022/04/01 06:57:42;;;;;;;0.30;0.30;;;3.20;99.90;;;;;;5094236;28;20479;-88
2022/04/01 07:00:12;;;;;;;0.67;0.67;;;3.20;99.90;;;;;;5093987;28;20456;-89
2022/04/01 07:02:39;;;;;;;0.40;0.40;;;3.20;99.90;;;;;;5093839;28;20904;-88
2022/04/01 07:05:08;;;;;;;0.30;0.20;;;3.30;99.90;;;;;;5093986;28;20432;-88
2022/04/01 07:07:35;;;;;;;0.60;0.50;;;3.30;99.90;;;;;;5093917;28;20439;-88
2022/04/01 07:10:02;;;;;;;0.60;0.60;;;3.40;99.90;;;;;;5093957;28;20460;-89
2022/04/01 07:12:29;;;;;;;0.30;0.20;;;3.40;99.90;;;;;;5093984;28;20447;-88
2022/04/01 07:14:56;;;;;;;0.30;0.30;;;3.40;99.90;;;;;;5093903;28;20490;-88
2022/04/01 07:17:24;;;;;;;0.40;0.40;;;3.40;99.90;;;;;;5093821;28;20483;-88
2022/04/01 07:19:51;;;;;;;0.30;0.20;;;3.30;99.90;;;;;;5094009;28;20912;-90
2022/04/01 07:22:19;;;;;;;0.30;0.30;;;3.30;99.90;;;;;;5093541;28;20439;-90
2022/04/01 07:24:46;;;;;;;0.30;0.30;;;3.30;99.90;;;;;;5093556;28;20943;-89
2022/04/01 07:27:14;;;;;;;0.50;0.50;;;3.30;99.90;;;;;;5093874;28;20444;-88
2022/04/01 07:29:41;;;;;;;0.40;0.40;;;3.30;99.90;;;;;;5093649;28;20467;-88
2022/04/01 07:34:52;;;;;;;1.03;1.03;;;3.30;99.90;;;;;;5093805;28;20412;-88
2022/04/01 07:37:23;;;;;;;0.50;0.50;;;3.30;99.90;;;;;;5093606;28;20483;-88
2022/04/01 07:39:50;;;;;;;0.43;0.43;;;3.30;99.90;;;;;;5093363;28;21070;-88
2022/04/01 07:42:18;;;;;;;1.03;1.03;;;3.30;99.90;;;;;;5093563;28;20537;-89
2022/04/01 07:44:45;;;;;;;0.63;0.63;;;3.30;99.90;;;;;;5093456;28;20454;-88
2022/04/01 07:47:14;;;;;;;0.67;0.40;;;3.30;99.90;;;;;;5093568;28;20440;-89
2022/04/01 07:49:41;;;;;;;0.93;0.93;;;3.30;99.90;;;;;;5093209;28;20518;-89
2022/04/01 07:52:09;;;;;;;0.67;0.67;;;3.30;99.90;;;;;;5093369;28;20462;-89
2022/04/01 07:54:37;;;;;;;1.50;0.73;;;3.40;99.90;;;;;;5093427;28;20451;-89
2022/04/01 07:57:06;;;;;;;0.30;0.30;;;3.50;99.90;;;;;;5093125;28;20984;-90
2022/04/01 07:59:33;;;;;;;0.40;0.40;;;3.40;99.90;;;;;;5093482;28;20468;-89
2022/04/01 08:02:01;;;;;;;0.40;0.40;;;3.50;99.90;;;;;;5093196;28;20432;-89
2022/04/01 08:04:28;;;;;;;0.40;0.40;;;3.50;99.90;;;;;;5092947;28;20515;-88
2022/04/01 08:06:56;;;;;;;1.00;0.60;;;3.50;99.90;;;;;;5093354;28;20478;-87
2022/04/01 08:09:24;;;;;;;0.30;0.30;;;3.50;99.90;;;;;;5093286;28;20472;-88
2022/04/01 08:11:53;;;;;;;0.30;0.30;;;3.50;99.90;;;;;;5094993;28;20452;-89
2022/04/01 08:14:20;;;;;;;0.40;0.40;;;3.60;99.90;;;;;;5097449;28;20432;-89
2022/04/01 08:16:48;;;;;;;0.30;0.30;;;3.70;99.90;;;;;;5097235;28;20439;-88
2022/04/01 08:19:15;;;;;;;0.70;0.70;;;3.70;99.90;;;;;;5096833;28;20460;-89
2022/04/01 08:21:44;;;;;;;0.63;0.63;;;3.60;99.90;;;;;;5097149;28;20455;-88
2022/04/01 08:24:11;;;;;;;0.40;0.40;;;3.60;99.90;;;;;;5097104;28;20444;-90
2022/04/01 08:26:38;;;;;;;0.70;0.70;;;3.60;99.90;;;;;;5097154;28;20503;-89
2022/04/01 08:29:06;;;;;;;0.47;0.47;;;3.50;99.90;;;;;;5096592;28;21003;-88
2022/04/01 08:31:34;;;;;;;0.30;0.30;;;3.60;99.90;;;;;;5096782;28;20436;-89
2022/04/01 08:34:00;;;;;;;0.30;0.30;;;3.60;99.90;;;;;;5097047;28;20505;-88
2022/04/01 08:36:28;;;;;;;0.33;0.33;;;3.60;99.90;;;;;;5097185;28;20451;-88
2022/04/01 08:38:54;;;;;;;0.80;0.80;;;3.60;99.90;;;;;;5096659;28;20611;-89
2022/04/01 08:41:23;;;;;;;0.60;0.60;;;3.60;99.90;;;;;;5096740;28;20427;-88
2022/04/01 08:43:52;;;;;;;0.43;0.43;;;3.60;99.90;;;;;;5096705;28;20947;-90
2022/04/01 08:46:21;;;;;;;1.33;0.80;;;3.70;99.90;;;;;;5096803;28;20428;-88
2022/04/01 08:48:49;;;;;;;0.70;0.70;;;3.70;99.90;;;;;;5097100;28;20443;-89
2022/04/01 08:51:16;;;;;;;0.40;0.30;;;3.60;99.90;;;;;;5096644;28;20428;-88
2022/04/01 08:53:44;;;;;;;0.30;0.30;;;3.60;99.90;;;;;;5096764;28;20447;-88
2022/04/01 08:56:12;;;;;;;0.50;0.40;;;3.60;99.90;;;;;;5097096;28;20792;-88
2022/04/01 08:58:40;;;;;;;0.30;0.30;;;3.60;99.90;;;;;;5096481;28;20467;-89
2022/04/01 09:01:07;;;;;;;0.30;0.30;;;3.50;99.90;;;;;;5096412;28;20423;-90
2022/04/01 09:03:37;;;;;;;0.30;0.20;;;3.60;99.90;;;;;;5096223;28;20474;-90
2022/04/01 09:06:06;;;;;;;0.30;0.30;;;3.60;99.90;;;;;;5096691;28;20448;-89
2022/04/01 09:08:35;;;;;;;0.37;0.37;;;3.60;99.90;;;;;;5096188;28;20447;-89
2022/04/01 09:11:05;;;;;;;0.30;0.30;;;3.60;99.90;;;;;;5096275;28;20456;-89
2022/04/01 09:13:34;;;;;;;0.30;0.30;;;3.60;99.90;;;;;;5097140;28;20454;-88
2022/04/01 09:16:01;;;;;;;0.30;0.30;;;3.60;99.90;;;;;;5099538;28;20452;-88
2022/04/01 09:18:44;;;;;;;0.30;0.30;;;3.50;99.90;;;;;;5096110;28;20475;-89
2022/04/01 09:21:13;;;;;;;0.57;0.57;;;3.60;99.90;;;;;;5096155;28;20880;-88
2022/04/01 09:23:46;;;;;;;0.40;0.40;;;3.50;99.90;;;;;;5095620;28;20479;-87
2022/04/01 09:26:13;;;;;;;0.77;0.77;;;3.40;99.90;;;;;;5096321;28;20444;-88
2022/04/01 09:28:41;;;;;;;0.30;0.20;;;3.40;99.90;;;;;;5095963;28;20444;-89
2022/04/01 09:31:10;;;;;;;0.40;0.30;;;3.40;99.90;;;;;;5095890;28;20486;-88
2022/04/01 09:33:49;;;;;;;0.60;0.60;;;3.40;99.90;;;;;;5095568;28;20877;-89
2022/04/01 09:36:18;;;;;;;0.40;0.40;;;3.40;99.90;;;;;;5095591;28;20435;-88
2022/04/01 09:38:59;;;;;;;1.67;0.57;;;3.40;99.90;;;;;;5095373;28;21048;-88
2022/04/01 09:41:32;;;;;;;0.40;0.40;;;3.40;99.90;;;;;;5095549;28;20405;-88
2022/04/01 09:44:07;;;;;;;0.60;0.60;;;3.50;99.90;;;;;;5095474;28;20907;-88
2022/04/01 09:46:34;;;;;;;0.43;0.43;;;3.50;99.90;;;;;;5095461;28;20430;-89
2022/04/01 09:49:02;;;;;;;0.30;0.30;;;3.40;99.90;;;;;;5095585;28;20440;-88
2022/04/01 09:51:33;;;;;;;0.40;0.40;;;3.40;99.90;;;;;;5095737;28;20448;-89
2022/04/01 09:54:04;;;;;;;0.40;0.40;;;3.40;99.90;;;;;;5095300;28;20436;-88
2022/04/01 09:56:43;;;;;;;0.57;0.57;;;3.30;99.90;;;;;;5095579;28;20436;-88
2022/04/01 09:59:12;;;;;;;0.83;0.83;;;3.30;99.90;;;;;;5095209;28;20860;-86
2022/04/01 10:01:40;;;;;;;0.30;0.30;;;3.30;99.90;;;;;;5095330;28;20493;-85
2022/04/01 10:04:09;;;;;;;0.40;0.40;;;3.30;99.90;;;;;;5094806;28;20475;-86
2022/04/01 10:06:37;;;;;;;0.50;0.50;;;3.20;99.90;;;;;;5094790;28;20452;-87
2022/04/01 10:09:07;;;;;;;2.60;2.50;;;3.20;99.90;;;;;;5095129;28;20468;-88
2022/04/01 10:11:35;;;;;;;0.50;0.50;;;3.30;99.90;;;;;;5094878;28;20479;-86
2022/04/01 10:14:06;;;;;;;0.30;0.20;;;3.30;99.90;;;;;;5095099;28;20507;-87
2022/04/01 10:16:35;;;;;;;0.30;0.30;;;3.30;99.90;;;;;;5095067;28;20432;-87
2022/04/01 10:19:07;;;;;;;0.30;0.30;;;3.30;99.90;;;;;;5094803;28;20909;-87
2022/04/01 10:21:36;;;;;;;0.50;0.40;;;3.40;99.90;;;;;;5094616;28;20423;-88
2022/04/01 10:24:23;;;;;;;0.30;0.30;;;3.50;99.90;;;;;;5095078;28;20429;-86
2022/04/01 10:27:07;;;;;;;0.83;0.83;;;3.50;99.90;;;;;;5094511;28;20432;-88
2022/04/01 10:29:35;;;;;;;0.30;0.20;;;3.50;99.90;;;;;;5094737;28;20588;-89
2022/04/01 10:32:23;;;;;;;0.67;0.67;;;3.50;99.90;;;;;;5094509;28;20462;-88
2022/04/01 10:34:53;;;;;;;0.50;0.50;;;3.50;99.90;;;;;;5094305;28;20429;-86
2022/04/01 10:37:22;;;;;;;0.30;0.30;;;3.50;99.90;;;;;;5094388;28;20458;-86
2022/04/01 10:39:51;;;;;;;0.30;0.20;;;3.50;99.90;;;;;;5094369;28;20525;-86
2022/04/01 10:42:19;;;;;;;0.60;0.60;;;3.60;99.90;;;;;;5094138;28;20436;-87
2022/04/01 10:44:51;;;;;;;0.30;0.20;;;3.50;99.90;;;;;;5094286;28;20428;-87
2022/04/01 10:47:21;;;;;;;0.30;0.30;;;3.50;99.90;;;;;;5094283;28;20428;-87
2022/04/01 10:52:34;;;;;;;0.30;0.30;;;3.50;99.90;;;;;;5094059;28;20403;-86
2022/04/01 10:55:18;;;;;;;1.07;1.07;;;3.50;99.90;;;;;;5094110;28;20784;-87
2022/04/01 10:57:46;;;;;;;0.77;0.77;;;3.50;99.90;;;;;;5093796;28;20483;-86
2022/04/01 11:00:16;;;;;;;0.60;0.60;;;3.50;99.90;;;;;;5094265;28;20467;-87
2022/04/01 11:02:44;;;;;;;0.40;0.30;;;3.50;99.90;;;;;;5093821;28;20440;-88
2022/04/01 11:05:31;;;;;;;0.30;0.30;;;3.60;99.90;;;;;;5094109;28;20527;-85
2022/04/01 11:08:19;;;;;;;0.30;0.30;;;3.60;99.90;;;;;;5093927;28;20433;-87
2022/04/01 11:11:06;;;;;;;0.30;0.20;;;3.60;99.90;;;;;;5093835;28;20540;-86
2022/04/01 11:13:34;;;;;;;0.30;0.30;;;3.60;99.90;;;;;;5093826;28;20440;-88
2022/04/01 11:16:19;;;;;;;0.30;0.20;;;3.60;99.90;;;;;;5093486;28;20818;-88
2022/04/01 11:19:10;;;;;;;0.77;0.50;;;3.60;99.90;;;;;;5093747;28;20513;-86
2022/04/01 11:21:36;;;;;;;0.30;0.30;;;3.60;99.90;;;;;;5093752;28;20424;-86
2022/04/01 11:24:21;;;;;;;0.90;0.83;;;3.70;99.90;;;;;;5093655;28;20452;-87
2022/04/01 11:26:48;;;;;;;0.47;0.47;;;3.60;99.90;;;;;;5093625;28;20433;-87
2022/04/01 11:29:22;;;;;;;0.60;0.60;;;3.60;99.90;;;;;;5093580;28;20468;-86
2022/04/01 11:31:50;;;;;;;0.30;0.20;;;3.60;99.90;;;;;;5093260;28;20423;-87
2022/04/01 11:34:17;;;;;;;0.30;0.30;;;3.60;99.90;;;;;;5093576;28;20432;-86
2022/04/01 11:36:44;;;;;;;0.30;0.30;;;3.60;99.90;;;;;;5093186;28;20462;-86
2022/04/01 11:39:18;;;;;;;0.30;0.30;;;3.50;99.90;;;;;;5093043;28;20574;-86
2022/04/01 11:41:46;;;;;;;0.30;0.30;;;3.60;99.90;;;;;;5093790;28;20460;-86
2022/04/01 11:44:15;;;;;;;0.30;0.30;;;3.60;99.90;;;;;;5093555;28;20782;-86
2022/04/01 11:46:42;;;;;;;0.30;0.30;;;3.70;99.90;;;;;;5092662;28;20458;-87
2022/04/01 11:49:09;;;;;;;0.30;0.30;;;3.70;99.90;;;;;;5093447;28;20456;-86
2022/04/01 11:51:38;;;;;;;0.30;0.30;;;3.70;99.90;;;;;;5092978;28;20951;-85
2022/04/01 11:54:10;;;;;;;0.30;0.30;;;3.70;99.90;;;;;;5093333;28;20435;-88
2022/04/01 11:56:38;;;;;;;0.50;0.50;;;3.80;99.90;;;;;;5093402;28;20433;-87
2022/04/01 11:59:07;;;;;;;0.40;0.40;;;3.80;99.90;;;;;;5092994;28;20480;-85
2022/04/01 12:01:54;;;;;;;0.30;0.30;;;3.70;99.90;;;;;;5093315;28;20458;-86
2022/04/01 12:04:28;;;;;;;0.77;0.50;;;3.60;99.90;;;;;;5093142;28;20568;-87
2022/04/01 12:09:41;;;;;;;0.30;0.30;;;3.60;99.90;;;;;;5061980;28;20451;-86
2022/04/01 12:12:10;;;;;;;0.30;0.30;;;3.60;99.90;;;;;;5092971;28;20446;-87
2022/04/01 12:14:39;;;;;;;0.30;0.30;;;3.60;99.90;;;;;;5093019;28;20440;-87
2022/04/01 12:17:07;;;;;;;0.30;0.20;;;3.60;99.90;;;;;;5092919;28;20908;-86
2022/04/01 12:19:35;;;;;;;0.50;0.50;;;3.50;99.90;;;;;;5093057;28;20488;-87
2022/04/01 12:22:01;;;;;;;0.30;0.30;;;3.50;99.90;;;;;;5093149;28;20444;-85
2022/04/01 12:24:29;;;;;;;0.30;0.20;;;3.50;99.90;;;;;;5092834;28;20801;-87
2022/04/01 12:26:57;;;;;;;0.30;0.30;;;3.50;99.90;;;;;;5092918;28;20419;-86
2022/04/01 12:29:26;;;;;;;0.30;0.20;;;3.50;99.90;;;;;;5093043;28;20466;-86
2022/04/01 12:31:55;;;;;;;0.50;0.50;;;3.50;99.90;;;;;;5092796;28;20911;-85
2022/04/01 12:34:22;;;;;;;0.30;0.30;;;3.50;99.90;;;;;;5093112;28;20433;-86
2022/04/01 12:36:59;;;;;;;0.30;0.30;;;3.50;99.90;;;;;;5092872;28;20447;-86
2022/04/01 12:39:26;;;;;;;0.30;0.30;;;3.50;99.90;;;;;;5092574;28;21059;-85
2022/04/01 12:41:54;;;;;;;0.30;0.30;;;3.40;99.90;;;;;;5093116;28;20436;-88
2022/04/01 12:44:26;;;;;;;0.30;0.20;;;3.40;99.90;;;;;;5093071;28;20443;-89
2022/04/01 12:46:55;;;;;;;0.30;0.30;;;3.40;99.90;;;;;;5093049;28;20438;-86
2022/04/01 12:49:23;;;;;;;0.30;0.23;;;3.10;99.90;;;;;;5092524;28;20478;-85
2022/04/01 12:51:52;;;;;;;0.30;0.20;;;2.80;99.90;;;;;;5092616;28;20428;-87
2022/04/01 12:54:29;;;;;;;0.30;0.30;;;2.50;99.90;;;;;;5092917;28;20420;-87
2022/04/01 12:56:57;;;;;;;0.30;0.20;;;2.40;99.90;;;;;;5092998;28;20490;-86
2022/04/01 12:59:25;;;;;;;0.30;0.20;;;2.40;99.90;;;;;;5095992;28;20897;-85
2022/04/01 13:02:02;;;;;;;0.30;0.20;;;2.40;99.90;;;;;;5096386;28;20439;-84
2022/04/01 13:04:29;;;;;;;0.30;0.30;;;2.50;99.90;;;;;;5096009;28;20482;-86
2022/04/01 13:07:09;;;;;;;0.30;0.30;;;2.50;99.90;;;;;;5095957;28;21046;-86
2022/04/01 13:09:48;;;;;;;0.30;0.30;;;2.60;99.90;;;;;;5096247;28;20467;-85
2022/04/01 13:12:15;;;;;;;0.30;0.30;;;2.60;99.90;;;;;;5095960;28;20447;-87
2022/04/01 13:14:43;;;;;;;0.30;0.30;;;2.80;99.90;;;;;;5095927;28;20431;-86
2022/04/01 13:17:11;;;;;;;0.30;0.20;;;2.80;99.90;;;;;;5096371;28;20795;-87
2022/04/01 13:19:38;;;;;;;0.33;0.33;;;2.80;99.90;;;;;;5095946;28;20484;-86
2022/04/01 13:22:07;;;;;;;0.30;0.30;;;2.80;99.90;;;;;;5096048;28;20451;-87
2022/04/01 13:24:37;;;;;;;0.83;0.83;;;2.80;99.90;;;;;;5096089;28;20435;-87